sensor_id;sensor_type;location;lat;lon;timestamp;temperature;humidity
45066;DHT22;30830;53.704;10.004;2022-10-12T00:01:05;6.00;99.90
45066;DHT22;30830;53.704;10.004;2022-10-12T00:03:32;5.90;99.90
45066;DHT22;30830;53.704;10.004;2022-10-12T00:06:08;5.90;99.90
45066;DHT22;30830;53.704;10.004;2022-10-12T00:08:35;5.90;99.90
45066;DHT22;30830;53.704;10.004;2022-10-12T00:11:01;5.90;99.90
45066;DHT22;30830;53.704;10.004;2022-10-12T00:13:27;5.90;99.90
45066;DHT22;30830;53.704;10.004;2022-10-12T00:15:53;5.80;99.90
45066;DHT22;30830;53.704;10.004;2022-10-12T00:18:18;5.80;99.90
45066;DHT22;30830;53.704;10.004;2022-10-12T00:20:44;5.80;99.90
45066;DHT22;30830;53.704;10.004;2022-10-12T00:23:09;5.80;99.90
45066;DHT22;30830;53.704;10.004;2022-10-12T00:25:40;5.80;99.90
45066;DHT22;30830;53.704;10.004;2022-10-12T00:28:06;5.80;99.90
45066;DHT22;30830;53.704;10.004;2022-10-12T00:30:33;5.80;99.90
45066;DHT22;30830;53.704;10.004;2022-10-12T00:32:59;5.80;99.90
45066;DHT22;30830;53.704;10.004;2022-10-12T00:35:27;5.80;99.90
45066;DHT22;30830;53.704;10.004;2022-10-12T00:37:54;5.80;99.90
45066;DHT22;30830;53.704;10.004;2022-10-12T00:40:20;5.80;99.90
45066;DHT22;30830;53.704;10.004;2022-10-12T00:42:46;5.80;99.90
45066;DHT22;30830;53.704;10.004;2022-10-12T00:45:14;5.80;99.90
45066;DHT22;30830;53.704;10.004;2022-10-12T00:47:43;5.80;99.90
45066;DHT22;30830;53.704;10.004;2022-10-12T00:50:20;5.80;99.90
45066;DHT22;30830;53.704;10.004;2022-10-12T00:53:07;5.80;99.90
45066;DHT22;30830;53.704;10.004;2022-10-12T00:55:39;5.90;99.90
45066;DHT22;30830;53.704;10.004;2022-10-12T00:58:09;5.90;99.90
45066;DHT22;30830;53.704;10.004;2022-10-12T01:00:36;6.00;99.90
45066;DHT22;30830;53.704;10.004;2022-10-12T01:03:02;6.00;99.90
45066;DHT22;30830;53.704;10.004;2022-10-12T01:05:28;6.00;99.90
45066;DHT22;30830;53.704;10.004;2022-10-12T01:07:54;6.10;99.90
45066;DHT22;30830;53.704;10.004;2022-10-12T01:10:20;6.10;99.90
45066;DHT22;30830;53.704;10.004;2022-10-12T01:12:46;6.10;99.90
45066;DHT22;30830;53.704;10.004;2022-10-12T01:15:13;6.10;99.90
45066;DHT22;30830;53.704;10.004;2022-10-12T01:17:49;6.10;99.90
45066;DHT22;30830;53.704;10.004;2022-10-12T01:20:31;6.10;99.90
45066;DHT22;30830;53.704;10.004;2022-10-12T01:26:27;6.20;99.90
45066;DHT22;30830;53.704;10.004;2022-10-12T01:32:06;6.20;99.90
45066;DHT22;30830;53.704;10.004;2022-10-12T01:34:51;6.20;99.90
45066;DHT22;30830;53.704;10.004;2022-10-12T01:37:31;6.20;99.90
45066;DHT22;30830;53.704;10.004;2022-10-12T01:40:06;6.30;99.90
45066;DHT22;30830;53.704;10.004;2022-10-12T01:42:37;6.30;99.90
45066;DHT22;30830;53.704;10.004;2022-10-12T01:45:14;6.30;99.90
45066;DHT22;30830;53.704;10.004;2022-10-12T01:47:40;6.40;99.90
45066;DHT22;30830;53.704;10.004;2022-10-12T01:50:11;6.40;99.90
45066;DHT22;30830;53.704;10.004;2022-10-12T01:55:56;6.50;99.90
45066;DHT22;30830;53.704;10.004;2022-10-12T01:58:33;6.40;99.90
45066;DHT22;30830;53.704;10.004;2022-10-12T02:01:26;6.40;99.90
45066;DHT22;30830;53.704;10.004;2022-10-12T02:04:10;6.50;99.90
45066;DHT22;30830;53.704;10.004;2022-10-12T02:06:47;6.50;99.90
45066;DHT22;30830;53.704;10.004;2022-10-12T02:09:24;6.50;99.90
45066;DHT22;30830;53.704;10.004;2022-10-12T02:11:53;6.50;99.90
45066;DHT22;30830;53.704;10.004;2022-10-12T02:14:25;6.60;99.90
45066;DHT22;30830;53.704;10.004;2022-10-12T02:17:00;6.60;99.90
45066;DHT22;30830;53.704;10.004;2022-10-12T02:19:32;6.60;99.90
45066;DHT22;30830;53.704;10.004;2022-10-12T02:22:01;6.60;99.90
45066;DHT22;30830;53.704;10.004;2022-10-12T02:24:30;6.60;99.90
45066;DHT22;30830;53.704;10.004;2022-10-12T02:26:57;6.70;99.90
45066;DHT22;30830;53.704;10.004;2022-10-12T02:29:31;6.70;99.90
45066;DHT22;30830;53.704;10.004;2022-10-12T02:32:28;6.80;99.90
45066;DHT22;30830;53.704;10.004;2022-10-12T02:35:02;6.70;99.90
45066;DHT22;30830;53.704;10.004;2022-10-12T02:37:43;6.80;99.90
45066;DHT22;30830;53.704;10.004;2022-10-12T02:43:07;6.80;99.90
45066;DHT22;30830;53.704;10.004;2022-10-12T02:45:36;6.80;99.90
45066;DHT22;30830;53.704;10.004;2022-10-12T02:48:04;6.90;99.90
45066;DHT22;30830;53.704;10.004;2022-10-12T02:50:31;6.90;99.90
45066;DHT22;30830;53.704;10.004;2022-10-12T02:52:57;6.90;99.90
45066;DHT22;30830;53.704;10.004;2022-10-12T02:55:23;6.90;99.90
45066;DHT22;30830;53.704;10.004;2022-10-12T02:57:49;7.00;99.90
45066;DHT22;30830;53.704;10.004;2022-10-12T03:00:15;7.00;99.90
45066;DHT22;30830;53.704;10.004;2022-10-12T03:02:40;7.00;99.90
45066;DHT22;30830;53.704;10.004;2022-10-12T03:05:06;7.10;99.90
45066;DHT22;30830;53.704;10.004;2022-10-12T03:07:32;7.10;99.90
45066;DHT22;30830;53.704;10.004;2022-10-12T03:09:57;7.10;99.90
45066;DHT22;30830;53.704;10.004;2022-10-12T03:12:23;7.10;99.90
45066;DHT22;30830;53.704;10.004;2022-10-12T03:14:48;7.20;99.90
45066;DHT22;30830;53.704;10.004;2022-10-12T03:17:14;7.20;99.90
45066;DHT22;30830;53.704;10.004;2022-10-12T03:19:40;7.20;99.90
45066;DHT22;30830;53.704;10.004;2022-10-12T03:22:05;7.20;99.90
45066;DHT22;30830;53.704;10.004;2022-10-12T03:24:31;7.20;99.90
45066;DHT22;30830;53.704;10.004;2022-10-12T03:26:57;7.30;99.90
45066;DHT22;30830;53.704;10.004;2022-10-12T03:29:22;7.30;99.90
45066;DHT22;30830;53.704;10.004;2022-10-12T03:31:48;7.30;99.90
45066;DHT22;30830;53.704;10.004;2022-10-12T03:34:13;7.40;99.90
45066;DHT22;30830;53.704;10.004;2022-10-12T03:36:39;7.40;99.90
45066;DHT22;30830;53.704;10.004;2022-10-12T03:39:05;7.40;99.90
45066;DHT22;30830;53.704;10.004;2022-10-12T03:41:30;7.50;99.90
45066;DHT22;30830;53.704;10.004;2022-10-12T03:43:56;7.50;99.90
45066;DHT22;30830;53.704;10.004;2022-10-12T03:46:21;7.50;99.90
45066;DHT22;30830;53.704;10.004;2022-10-12T03:48:47;7.50;99.90
45066;DHT22;30830;53.704;10.004;2022-10-12T03:51:12;7.60;99.90
45066;DHT22;30830;53.704;10.004;2022-10-12T03:53:38;7.60;99.90
45066;DHT22;30830;53.704;10.004;2022-10-12T03:56:03;7.60;99.90
45066;DHT22;30830;53.704;10.004;2022-10-12T03:58:29;7.60;99.90
45066;DHT22;30830;53.704;10.004;2022-10-12T04:00:55;7.60;99.90
45066;DHT22;30830;53.704;10.004;2022-10-12T04:03:20;7.70;99.90
45066;DHT22;30830;53.704;10.004;2022-10-12T04:05:57;7.70;99.90
45066;DHT22;30830;53.704;10.004;2022-10-12T04:08:23;7.70;99.90
45066;DHT22;30830;53.704;10.004;2022-10-12T04:10:49;7.70;99.90
45066;DHT22;30830;53.704;10.004;2022-10-12T04:13:16;7.70;99.90
45066;DHT22;30830;53.704;10.004;2022-10-12T04:15:41;7.70;99.90
45066;DHT22;30830;53.704;10.004;2022-10-12T04:18:07;7.70;99.90
45066;DHT22;30830;53.704;10.004;2022-10-12T04:20:33;7.70;99.90
45066;DHT22;30830;53.704;10.004;2022-10-12T04:22:58;7.70;99.90
45066;DHT22;30830;53.704;10.004;2022-10-12T04:25:24;7.70;99.90
45066;DHT22;30830;53.704;10.004;2022-10-12T04:27:49;7.80;99.90
45066;DHT22;30830;53.704;10.004;2022-10-12T04:30:15;7.80;99.90
45066;DHT22;30830;53.704;10.004;2022-10-12T04:32:41;7.80;99.90
45066;DHT22;30830;53.704;10.004;2022-10-12T04:35:07;7.80;99.90
45066;DHT22;30830;53.704;10.004;2022-10-12T04:37:32;7.80;99.90
45066;DHT22;30830;53.704;10.004;2022-10-12T04:39:58;7.80;99.90
45066;DHT22;30830;53.704;10.004;2022-10-12T04:42:23;7.90;99.90
45066;DHT22;30830;53.704;10.004;2022-10-12T04:44:49;7.90;99.90
45066;DHT22;30830;53.704;10.004;2022-10-12T04:47:15;7.90;99.90
45066;DHT22;30830;53.704;10.004;2022-10-12T04:49:40;7.90;99.90
45066;DHT22;30830;53.704;10.004;2022-10-12T04:52:06;7.90;99.90
45066;DHT22;30830;53.704;10.004;2022-10-12T04:54:31;7.80;99.90
45066;DHT22;30830;53.704;10.004;2022-10-12T04:56:57;7.80;99.90
45066;DHT22;30830;53.704;10.004;2022-10-12T04:59:23;7.70;99.90
45066;DHT22;30830;53.704;10.004;2022-10-12T05:01:48;7.70;99.90
45066;DHT22;30830;53.704;10.004;2022-10-12T05:04:14;7.60;99.90
45066;DHT22;30830;53.704;10.004;2022-10-12T05:06:40;7.60;99.90
45066;DHT22;30830;53.704;10.004;2022-10-12T05:09:05;7.60;99.90
45066;DHT22;30830;53.704;10.004;2022-10-12T05:11:31;7.50;99.90
45066;DHT22;30830;53.704;10.004;2022-10-12T05:13:56;7.50;99.90
45066;DHT22;30830;53.704;10.004;2022-10-12T05:16:22;7.40;99.90
45066;DHT22;30830;53.704;10.004;2022-10-12T05:18:48;7.30;99.90
45066;DHT22;30830;53.704;10.004;2022-10-12T05:21:13;7.30;99.90
45066;DHT22;30830;53.704;10.004;2022-10-12T05:23:39;7.30;99.90
45066;DHT22;30830;53.704;10.004;2022-10-12T05:26:05;7.20;99.90
45066;DHT22;30830;53.704;10.004;2022-10-12T05:28:30;7.20;99.90
45066;DHT22;30830;53.704;10.004;2022-10-12T05:30:56;7.10;99.90
45066;DHT22;30830;53.704;10.004;2022-10-12T05:33:22;7.10;99.90
45066;DHT22;30830;53.704;10.004;2022-10-12T05:35:47;7.10;99.90
45066;DHT22;30830;53.704;10.004;2022-10-12T05:38:13;7.00;99.90
45066;DHT22;30830;53.704;10.004;2022-10-12T05:40:39;7.00;99.90
45066;DHT22;30830;53.704;10.004;2022-10-12T05:43:04;6.90;99.90
45066;DHT22;30830;53.704;10.004;2022-10-12T05:45:30;6.90;99.90
45066;DHT22;30830;53.704;10.004;2022-10-12T05:47:55;6.80;99.90
45066;DHT22;30830;53.704;10.004;2022-10-12T05:50:21;6.80;99.90
45066;DHT22;30830;53.704;10.004;2022-10-12T05:52:47;6.80;99.90
45066;DHT22;30830;53.704;10.004;2022-10-12T05:55:12;6.80;99.90
45066;DHT22;30830;53.704;10.004;2022-10-12T05:57:38;6.80;99.90
45066;DHT22;30830;53.704;10.004;2022-10-12T06:00:05;6.70;99.90
45066;DHT22;30830;53.704;10.004;2022-10-12T06:02:31;6.70;99.90
45066;DHT22;30830;53.704;10.004;2022-10-12T06:04:57;6.70;99.90
45066;DHT22;30830;53.704;10.004;2022-10-12T06:07:22;6.70;99.90
45066;DHT22;30830;53.704;10.004;2022-10-12T06:09:48;6.60;99.90
45066;DHT22;30830;53.704;10.004;2022-10-12T06:12:13;6.60;99.90
45066;DHT22;30830;53.704;10.004;2022-10-12T06:14:40;6.60;99.90
45066;DHT22;30830;53.704;10.004;2022-10-12T06:17:06;6.60;99.90
45066;DHT22;30830;53.704;10.004;2022-10-12T06:19:33;6.60;99.90
45066;DHT22;30830;53.704;10.004;2022-10-12T06:21:58;6.60;99.90
45066;DHT22;30830;53.704;10.004;2022-10-12T06:24:24;6.60;99.90
45066;DHT22;30830;53.704;10.004;2022-10-12T06:26:49;6.60;99.90
45066;DHT22;30830;53.704;10.004;2022-10-12T06:29:15;6.60;99.90
45066;DHT22;30830;53.704;10.004;2022-10-12T06:31:41;6.60;99.90
45066;DHT22;30830;53.704;10.004;2022-10-12T06:34:07;6.60;99.90
45066;DHT22;30830;53.704;10.004;2022-10-12T06:36:32;6.60;99.90
45066;DHT22;30830;53.704;10.004;2022-10-12T06:38:58;6.60;99.90
45066;DHT22;30830;53.704;10.004;2022-10-12T06:41:24;6.60;99.90
45066;DHT22;30830;53.704;10.004;2022-10-12T06:43:49;6.60;99.90
45066;DHT22;30830;53.704;10.004;2022-10-12T06:46:15;6.70;99.90
45066;DHT22;30830;53.704;10.004;2022-10-12T06:48:40;6.70;99.90
45066;DHT22;30830;53.704;10.004;2022-10-12T06:51:06;6.70;99.90
45066;DHT22;30830;53.704;10.004;2022-10-12T06:53:32;6.70;99.90
45066;DHT22;30830;53.704;10.004;2022-10-12T06:56:03;6.70;99.90
45066;DHT22;30830;53.704;10.004;2022-10-12T06:58:29;6.80;99.90
45066;DHT22;30830;53.704;10.004;2022-10-12T07:00:55;6.90;99.90
45066;DHT22;30830;53.704;10.004;2022-10-12T07:03:20;6.90;99.90
45066;DHT22;30830;53.704;10.004;2022-10-12T07:05:46;7.00;99.90
45066;DHT22;30830;53.704;10.004;2022-10-12T07:08:12;7.00;99.90
45066;DHT22;30830;53.704;10.004;2022-10-12T07:10:38;7.10;99.90
45066;DHT22;30830;53.704;10.004;2022-10-12T07:13:03;7.10;99.90
45066;DHT22;30830;53.704;10.004;2022-10-12T07:15:29;7.20;99.90
45066;DHT22;30830;53.704;10.004;2022-10-12T07:17:55;7.30;99.90
45066;DHT22;30830;53.704;10.004;2022-10-12T07:20:20;7.30;99.90
45066;DHT22;30830;53.704;10.004;2022-10-12T07:22:46;7.30;99.90
45066;DHT22;30830;53.704;10.004;2022-10-12T07:25:12;7.40;99.90
45066;DHT22;30830;53.704;10.004;2022-10-12T07:27:37;7.40;99.90
45066;DHT22;30830;53.704;10.004;2022-10-12T07:30:03;7.50;99.90
45066;DHT22;30830;53.704;10.004;2022-10-12T07:32:29;7.60;99.90
45066;DHT22;30830;53.704;10.004;2022-10-12T07:34:55;7.60;99.90
45066;DHT22;30830;53.704;10.004;2022-10-12T07:37:21;7.70;99.90
45066;DHT22;30830;53.704;10.004;2022-10-12T07:39:47;7.90;99.90
45066;DHT22;30830;53.704;10.004;2022-10-12T07:42:13;7.90;99.90
45066;DHT22;30830;53.704;10.004;2022-10-12T07:44:39;8.00;99.90
45066;DHT22;30830;53.704;10.004;2022-10-12T07:47:05;8.10;99.90
45066;DHT22;30830;53.704;10.004;2022-10-12T07:49:30;8.10;99.90
45066;DHT22;30830;53.704;10.004;2022-10-12T07:51:56;8.20;99.90
45066;DHT22;30830;53.704;10.004;2022-10-12T07:54:22;8.20;99.90
45066;DHT22;30830;53.704;10.004;2022-10-12T07:56:48;8.30;99.90
45066;DHT22;30830;53.704;10.004;2022-10-12T07:59:13;8.40;99.90
45066;DHT22;30830;53.704;10.004;2022-10-12T08:01:39;8.50;99.90
45066;DHT22;30830;53.704;10.004;2022-10-12T08:04:05;8.60;99.90
45066;DHT22;30830;53.704;10.004;2022-10-12T08:06:32;8.70;99.90
45066;DHT22;30830;53.704;10.004;2022-10-12T08:08:59;8.90;99.90
45066;DHT22;30830;53.704;10.004;2022-10-12T08:11:25;9.00;99.90
45066;DHT22;30830;53.704;10.004;2022-10-12T08:13:51;9.10;99.90
45066;DHT22;30830;53.704;10.004;2022-10-12T08:16:18;9.20;99.90
45066;DHT22;30830;53.704;10.004;2022-10-12T08:18:44;9.30;99.90
45066;DHT22;30830;53.704;10.004;2022-10-12T08:21:12;9.40;99.90
45066;DHT22;30830;53.704;10.004;2022-10-12T08:23:38;9.60;99.90
45066;DHT22;30830;53.704;10.004;2022-10-12T08:26:04;9.60;99.90
45066;DHT22;30830;53.704;10.004;2022-10-12T08:28:30;9.70;99.90
45066;DHT22;30830;53.704;10.004;2022-10-12T08:30:56;9.80;99.90
45066;DHT22;30830;53.704;10.004;2022-10-12T08:33:22;9.90;99.90
45066;DHT22;30830;53.704;10.004;2022-10-12T08:35:47;10.00;99.90
45066;DHT22;30830;53.704;10.004;2022-10-12T08:38:14;10.10;99.90
45066;DHT22;30830;53.704;10.004;2022-10-12T08:43:26;10.30;99.90
45066;DHT22;30830;53.704;10.004;2022-10-12T08:45:57;10.30;99.90
45066;DHT22;30830;53.704;10.004;2022-10-12T08:48:25;10.40;99.90
45066;DHT22;30830;53.704;10.004;2022-10-12T08:51:03;10.50;99.90
45066;DHT22;30830;53.704;10.004;2022-10-12T08:53:51;10.60;99.90
45066;DHT22;30830;53.704;10.004;2022-10-12T08:56:19;10.70;99.90
45066;DHT22;30830;53.704;10.004;2022-10-12T08:58:46;10.80;99.90
45066;DHT22;30830;53.704;10.004;2022-10-12T09:01:20;10.80;99.90
45066;DHT22;30830;53.704;10.004;2022-10-12T09:04:26;11.00;99.90
45066;DHT22;30830;53.704;10.004;2022-10-12T09:07:16;11.00;99.90
45066;DHT22;30830;53.704;10.004;2022-10-12T09:15:38;11.30;99.90
45066;DHT22;30830;53.704;10.004;2022-10-12T09:18:15;11.30;99.90
45066;DHT22;30830;53.704;10.004;2022-10-12T09:20:50;11.40;99.90
45066;DHT22;30830;53.704;10.004;2022-10-12T09:23:34;11.40;99.90
45066;DHT22;30830;53.704;10.004;2022-10-12T09:26:14;11.50;99.90
45066;DHT22;30830;53.704;10.004;2022-10-12T09:28:50;11.60;99.90
45066;DHT22;30830;53.704;10.004;2022-10-12T09:34:07;11.70;99.90
45066;DHT22;30830;53.704;10.004;2022-10-12T09:36:35;11.70;99.90
45066;DHT22;30830;53.704;10.004;2022-10-12T09:39:04;11.70;99.90
45066;DHT22;30830;53.704;10.004;2022-10-12T09:41:34;11.80;99.90
45066;DHT22;30830;53.704;10.004;2022-10-12T09:44:02;11.80;99.90
45066;DHT22;30830;53.704;10.004;2022-10-12T09:46:37;11.90;99.90
45066;DHT22;30830;53.704;10.004;2022-10-12T09:49:04;11.90;99.90
45066;DHT22;30830;53.704;10.004;2022-10-12T09:51:30;12.00;99.90
45066;DHT22;30830;53.704;10.004;2022-10-12T09:53:57;12.10;99.90
45066;DHT22;30830;53.704;10.004;2022-10-12T09:56:34;12.10;99.90
45066;DHT22;30830;53.704;10.004;2022-10-12T09:59:03;12.10;99.90
45066;DHT22;30830;53.704;10.004;2022-10-12T10:01:32;12.20;99.90
45066;DHT22;30830;53.704;10.004;2022-10-12T10:04:20;12.20;99.90
45066;DHT22;30830;53.704;10.004;2022-10-12T10:06:46;12.40;99.90
45066;DHT22;30830;53.704;10.004;2022-10-12T10:09:34;12.40;99.90
45066;DHT22;30830;53.704;10.004;2022-10-12T10:12:21;12.50;99.90
45066;DHT22;30830;53.704;10.004;2022-10-12T10:14:49;12.50;99.90
45066;DHT22;30830;53.704;10.004;2022-10-12T10:17:22;12.50;99.90
45066;DHT22;30830;53.704;10.004;2022-10-12T10:19:50;12.60;99.90
45066;DHT22;30830;53.704;10.004;2022-10-12T10:22:16;12.60;99.90
45066;DHT22;30830;53.704;10.004;2022-10-12T10:24:42;12.60;99.90
45066;DHT22;30830;53.704;10.004;2022-10-12T10:27:34;12.60;99.90
45066;DHT22;30830;53.704;10.004;2022-10-12T10:30:27;12.70;99.90
45066;DHT22;30830;53.704;10.004;2022-10-12T10:33:13;12.80;99.90
45066;DHT22;30830;53.704;10.004;2022-10-12T10:35:40;12.80;99.90
45066;DHT22;30830;53.704;10.004;2022-10-12T10:38:10;12.80;99.90
45066;DHT22;30830;53.704;10.004;2022-10-12T10:40:39;12.90;99.90
45066;DHT22;30830;53.704;10.004;2022-10-12T10:43:18;13.00;99.90
45066;DHT22;30830;53.704;10.004;2022-10-12T10:45:54;13.00;99.90
45066;DHT22;30830;53.704;10.004;2022-10-12T10:48:23;13.00;99.90
45066;DHT22;30830;53.704;10.004;2022-10-12T10:50:56;13.00;99.90
45066;DHT22;30830;53.704;10.004;2022-10-12T10:53:26;13.10;99.90
45066;DHT22;30830;53.704;10.004;2022-10-12T10:56:01;13.10;99.90
45066;DHT22;30830;53.704;10.004;2022-10-12T11:01:01;13.20;99.90
45066;DHT22;30830;53.704;10.004;2022-10-12T11:08:33;13.30;99.90
45066;DHT22;30830;53.704;10.004;2022-10-12T11:11:22;13.30;99.90
45066;DHT22;30830;53.704;10.004;2022-10-12T11:14:02;13.30;99.90
45066;DHT22;30830;53.704;10.004;2022-10-12T11:19:25;13.30;99.90
45066;DHT22;30830;53.704;10.004;2022-10-12T11:21:55;13.40;99.90
45066;DHT22;30830;53.704;10.004;2022-10-12T11:26:56;13.40;99.90
45066;DHT22;30830;53.704;10.004;2022-10-12T11:29:25;13.50;99.90
45066;DHT22;30830;53.704;10.004;2022-10-12T11:32:06;13.50;99.90
45066;DHT22;30830;53.704;10.004;2022-10-12T11:34:50;13.50;99.90
45066;DHT22;30830;53.704;10.004;2022-10-12T11:37:22;13.50;99.90
45066;DHT22;30830;53.704;10.004;2022-10-12T11:39:51;13.50;99.90
45066;DHT22;30830;53.704;10.004;2022-10-12T11:42:31;13.50;99.90
45066;DHT22;30830;53.704;10.004;2022-10-12T11:44:59;13.50;99.90
45066;DHT22;30830;53.704;10.004;2022-10-12T11:50:46;13.50;99.90
45066;DHT22;30830;53.704;10.004;2022-10-12T11:52:53;13.60;99.90
45066;DHT22;30830;53.704;10.004;2022-10-12T11:58:31;13.70;99.90
45066;DHT22;30830;53.704;10.004;2022-10-12T12:04:17;13.70;99.90
45066;DHT22;30830;53.704;10.004;2022-10-12T12:09:34;13.80;99.90
45066;DHT22;30830;53.704;10.004;2022-10-12T12:24:37;13.90;99.90
45066;DHT22;30830;53.704;10.004;2022-10-12T12:27:04;13.90;99.90
45066;DHT22;30830;53.704;10.004;2022-10-12T12:29:50;13.90;99.90
45066;DHT22;30830;53.704;10.004;2022-10-12T12:32:16;13.90;99.90
45066;DHT22;30830;53.704;10.004;2022-10-12T12:34:55;13.90;99.90
45066;DHT22;30830;53.704;10.004;2022-10-12T12:37:25;13.90;99.90
45066;DHT22;30830;53.704;10.004;2022-10-12T12:39:55;13.90;99.90
45066;DHT22;30830;53.704;10.004;2022-10-12T12:42:31;13.90;99.90
45066;DHT22;30830;53.704;10.004;2022-10-12T12:47:57;14.00;99.90
45066;DHT22;30830;53.704;10.004;2022-10-12T12:50:32;14.00;99.90
45066;DHT22;30830;53.704;10.004;2022-10-12T12:53:19;14.00;99.90
45066;DHT22;30830;53.704;10.004;2022-10-12T12:56:02;13.90;99.90
45066;DHT22;30830;53.704;10.004;2022-10-12T13:16:05;14.00;99.90
45066;DHT22;30830;53.704;10.004;2022-10-12T13:18:47;14.00;99.90
45066;DHT22;30830;53.704;10.004;2022-10-12T13:21:26;14.00;99.90
45066;DHT22;30830;53.704;10.004;2022-10-12T13:24:00;14.00;99.90
45066;DHT22;30830;53.704;10.004;2022-10-12T13:26:28;13.90;99.90
45066;DHT22;30830;53.704;10.004;2022-10-12T13:28:58;14.00;99.90
45066;DHT22;30830;53.704;10.004;2022-10-12T13:31:33;14.00;99.90
45066;DHT22;30830;53.704;10.004;2022-10-12T13:34:10;14.10;99.90
45066;DHT22;30830;53.704;10.004;2022-10-12T13:37:04;14.20;99.90
45066;DHT22;30830;53.704;10.004;2022-10-12T13:39:38;14.20;99.90
45066;DHT22;30830;53.704;10.004;2022-10-12T13:42:04;14.20;99.90
45066;DHT22;30830;53.704;10.004;2022-10-12T13:44:33;14.20;99.90
45066;DHT22;30830;53.704;10.004;2022-10-12T13:47:01;14.30;99.90
45066;DHT22;30830;53.704;10.004;2022-10-12T13:52:14;14.40;99.90
45066;DHT22;30830;53.704;10.004;2022-10-12T13:54:44;14.40;99.90
45066;DHT22;30830;53.704;10.004;2022-10-12T14:00:07;14.50;99.90
45066;DHT22;30830;53.704;10.004;2022-10-12T14:02:33;14.40;99.90
45066;DHT22;30830;53.704;10.004;2022-10-12T14:05:00;14.50;99.90
45066;DHT22;30830;53.704;10.004;2022-10-12T14:07:37;14.50;99.90
45066;DHT22;30830;53.704;10.004;2022-10-12T14:10:06;14.50;99.90
45066;DHT22;30830;53.704;10.004;2022-10-12T14:12:34;14.40;99.90
45066;DHT22;30830;53.704;10.004;2022-10-12T14:15:01;14.40;99.90
45066;DHT22;30830;53.704;10.004;2022-10-12T14:17:27;14.40;99.90
45066;DHT22;30830;53.704;10.004;2022-10-12T14:19:54;14.40;99.90
45066;DHT22;30830;53.704;10.004;2022-10-12T14:24:49;14.40;99.90
45066;DHT22;30830;53.704;10.004;2022-10-12T14:27:22;14.50;99.90
45066;DHT22;30830;53.704;10.004;2022-10-12T14:29:49;14.50;99.90
45066;DHT22;30830;53.704;10.004;2022-10-12T14:34:49;14.50;99.90
45066;DHT22;30830;53.704;10.004;2022-10-12T14:37:28;14.50;99.90
45066;DHT22;30830;53.704;10.004;2022-10-12T14:39:54;14.50;99.90
45066;DHT22;30830;53.704;10.004;2022-10-12T14:42:30;14.50;99.90
45066;DHT22;30830;53.704;10.004;2022-10-12T14:44:56;14.50;99.90
45066;DHT22;30830;53.704;10.004;2022-10-12T14:49:51;14.40;99.90
45066;DHT22;30830;53.704;10.004;2022-10-12T14:52:23;14.40;99.90
45066;DHT22;30830;53.704;10.004;2022-10-12T14:54:57;14.30;99.90
45066;DHT22;30830;53.704;10.004;2022-10-12T14:57:25;14.30;99.90
45066;DHT22;30830;53.704;10.004;2022-10-12T14:59:51;14.20;99.90
45066;DHT22;30830;53.704;10.004;2022-10-12T15:02:20;14.10;99.90
45066;DHT22;30830;53.704;10.004;2022-10-12T15:04:46;14.10;99.90
45066;DHT22;30830;53.704;10.004;2022-10-12T15:07:25;14.10;99.90
45066;DHT22;30830;53.704;10.004;2022-10-12T15:09:51;14.00;99.90
45066;DHT22;30830;53.704;10.004;2022-10-12T15:12:19;14.00;99.90
45066;DHT22;30830;53.704;10.004;2022-10-12T15:14:45;14.00;99.90
45066;DHT22;30830;53.704;10.004;2022-10-12T15:17:13;13.90;99.90
45066;DHT22;30830;53.704;10.004;2022-10-12T15:19:39;13.90;99.90
45066;DHT22;30830;53.704;10.004;2022-10-12T15:22:05;13.80;99.90
45066;DHT22;30830;53.704;10.004;2022-10-12T15:24:30;13.80;99.90
45066;DHT22;30830;53.704;10.004;2022-10-12T15:26:57;13.70;99.90
45066;DHT22;30830;53.704;10.004;2022-10-12T15:29:23;13.60;99.90
45066;DHT22;30830;53.704;10.004;2022-10-12T15:31:48;13.60;99.90
45066;DHT22;30830;53.704;10.004;2022-10-12T15:34:14;13.60;99.90
45066;DHT22;30830;53.704;10.004;2022-10-12T15:36:40;13.50;99.90
45066;DHT22;30830;53.704;10.004;2022-10-12T15:39:06;13.40;99.90
45066;DHT22;30830;53.704;10.004;2022-10-12T15:41:32;13.40;99.90
45066;DHT22;30830;53.704;10.004;2022-10-12T15:43:57;13.40;99.90
45066;DHT22;30830;53.704;10.004;2022-10-12T15:46:23;13.30;99.90
45066;DHT22;30830;53.704;10.004;2022-10-12T15:48:49;13.30;99.90
45066;DHT22;30830;53.704;10.004;2022-10-12T15:51:39;13.30;99.90
45066;DHT22;30830;53.704;10.004;2022-10-12T15:54:05;13.20;99.90
45066;DHT22;30830;53.704;10.004;2022-10-12T15:56:31;13.10;99.90
45066;DHT22;30830;53.704;10.004;2022-10-12T15:58:56;13.10;99.90
45066;DHT22;30830;53.704;10.004;2022-10-12T16:01:22;13.00;99.90
45066;DHT22;30830;53.704;10.004;2022-10-12T16:03:48;13.00;99.90
45066;DHT22;30830;53.704;10.004;2022-10-12T16:06:14;12.90;99.90
45066;DHT22;30830;53.704;10.004;2022-10-12T16:08:41;12.90;99.90
45066;DHT22;30830;53.704;10.004;2022-10-12T16:11:10;12.80;99.90
45066;DHT22;30830;53.704;10.004;2022-10-12T16:13:37;12.70;99.90
45066;DHT22;30830;53.704;10.004;2022-10-12T16:16:02;12.70;99.90
45066;DHT22;30830;53.704;10.004;2022-10-12T16:18:28;12.60;99.90
45066;DHT22;30830;53.704;10.004;2022-10-12T16:20:54;12.60;99.90
45066;DHT22;30830;53.704;10.004;2022-10-12T16:23:24;12.50;99.90
45066;DHT22;30830;53.704;10.004;2022-10-12T16:25:50;12.40;99.90
45066;DHT22;30830;53.704;10.004;2022-10-12T16:28:16;12.30;99.90
45066;DHT22;30830;53.704;10.004;2022-10-12T16:30:42;12.30;99.90
45066;DHT22;30830;53.704;10.004;2022-10-12T16:33:08;12.20;99.90
45066;DHT22;30830;53.704;10.004;2022-10-12T16:35:34;12.10;99.90
45066;DHT22;30830;53.704;10.004;2022-10-12T16:37:59;12.00;99.90
45066;DHT22;30830;53.704;10.004;2022-10-12T16:40:25;11.90;99.90
45066;DHT22;30830;53.704;10.004;2022-10-12T16:42:54;11.80;99.90
45066;DHT22;30830;53.704;10.004;2022-10-12T16:45:21;11.70;99.90
45066;DHT22;30830;53.704;10.004;2022-10-12T16:47:47;11.60;99.90
45066;DHT22;30830;53.704;10.004;2022-10-12T16:50:20;11.50;99.90
45066;DHT22;30830;53.704;10.004;2022-10-12T16:52:46;11.40;99.90
45066;DHT22;30830;53.704;10.004;2022-10-12T16:55:12;11.30;99.90
45066;DHT22;30830;53.704;10.004;2022-10-12T16:57:38;11.30;99.90
45066;DHT22;30830;53.704;10.004;2022-10-12T17:00:06;11.20;99.90
45066;DHT22;30830;53.704;10.004;2022-10-12T17:02:32;11.10;99.90
45066;DHT22;30830;53.704;10.004;2022-10-12T17:04:57;11.00;99.90
45066;DHT22;30830;53.704;10.004;2022-10-12T17:07:23;10.90;99.90
45066;DHT22;30830;53.704;10.004;2022-10-12T17:09:49;10.80;99.90
45066;DHT22;30830;53.704;10.004;2022-10-12T17:12:16;10.80;99.90